Terminal Aerodrome Forecast
Issued by NWS Bismarck, ND

Home | Current Version | Previous Version | Text Only | Print | Product List | Glossary Off
Versions: 1 2 3 4 5 6 7 8 9 10 11 12 13 14 15

011
FTUS43 KBIS 162330
TAFISN
TAF
KISN 162330Z 1700/1724 28010KT P6SM SKC
     FM170200 24006KT P6SM SKC
     FM170800 22006KT P6SM SKC WS020/28035KT
     FM171400 23010KT P6SM SKC
     FM171900 24015G23KT P6SM SKC=

USA.gov is the U.S. government's official web portal to all federal, state and local government web resources and services.